Time;durP1;ratioP1;P1;durP2;ratioP2;P2;SDS_P1;SDS_P2;PMS_P1;PMS_P2;Temp;Humidity;BMP_temperature;BMP_pressure;BME280_temperature;BME280_humidity;BME280_pressure;Samples;Min_cycle;Max_cycle;Signal;HPM_P1;HPM_P2
2022/07/15 00:00:28;;;;;;;10.32;3.90;;;;;;;12.87;98.43;102093.25;5251400;28;20045;-65
2022/07/15 00:03:00;;;;;;;12.57;3.35;;;;;;;12.86;98.62;102087.00;5235624;28;20052;-65
2022/07/15 00:05:31;;;;;;;6.70;3.30;;;;;;;12.86;98.79;102087.00;5240072;28;20028;-65
2022/07/15 00:08:03;;;;;;;12.93;3.50;;;;;;;12.85;99.20;102089.81;5244223;28;20036;-65
2022/07/15 00:10:34;;;;;;;8.48;3.28;;;;;;;12.83;99.69;102083.69;5251723;28;20031;-65
2022/07/15 00:13:05;;;;;;;9.90;4.15;;;;;;;12.72;99.02;102087.94;5243725;28;20037;-64
2022/07/15 00:15:37;;;;;;;9.57;3.38;;;;;;;12.72;99.73;102087.09;5244824;28;20032;-65
2022/07/15 00:18:08;;;;;;;10.73;3.42;;;;;;;12.64;99.56;102084.06;5244259;28;20517;-64
2022/07/15 00:20:40;;;;;;;11.20;3.85;;;;;;;12.63;100.00;102087.69;5244163;28;20464;-65
2022/07/15 00:23:11;;;;;;;11.20;3.45;;;;;;;12.58;100.00;102084.44;5243690;28;20035;-66
2022/07/15 00:25:43;;;;;;;11.88;3.67;;;;;;;12.54;100.00;102086.44;5245252;28;20027;-65
2022/07/15 00:28:15;;;;;;;8.32;3.20;;;;;;;12.50;100.00;102084.94;5241823;28;20026;-65
2022/07/15 00:30:46;;;;;;;7.32;3.50;;;;;;;12.51;100.00;102084.84;5241517;28;20032;-65
2022/07/15 00:33:18;;;;;;;9.02;3.85;;;;;;;12.44;100.00;102080.84;5242590;28;20041;-65
2022/07/15 00:35:49;;;;;;;12.38;3.90;;;;;;;12.47;100.00;102086.00;5240473;28;20037;-65
2022/07/15 00:38:20;;;;;;;9.50;3.30;;;;;;;12.47;100.00;102085.16;5242007;28;20033;-65
2022/07/15 00:40:52;;;;;;;12.20;3.95;;;;;;;12.41;100.00;102081.06;5246574;28;20056;-65
2022/07/15 00:43:23;;;;;;;7.35;3.80;;;;;;;12.33;100.00;102081.53;5239622;28;20383;-65
2022/07/15 00:45:54;;;;;;;7.18;3.50;;;;;;;12.30;100.00;102083.56;5234852;28;20018;-65
2022/07/15 00:48:25;;;;;;;9.10;3.35;;;;;;;12.23;100.00;102084.88;5233952;28;20033;-65
2022/07/15 00:50:57;;;;;;;10.05;3.58;;;;;;;12.24;100.00;102081.28;5237472;28;20487;-65
2022/07/15 00:53:32;;;;;;;9.68;3.85;;;;;;;12.18;100.00;102079.84;5238800;28;20170;-65
2022/07/15 00:56:06;;;;;;;7.38;3.20;;;;;;;12.24;100.00;102081.28;5238340;28;20041;-65
2022/07/15 00:58:40;;;;;;;7.82;3.25;;;;;;;12.16;100.00;102081.75;5236202;28;20051;-65
2022/07/15 01:01:12;;;;;;;10.23;3.17;;;;;;;12.10;100.00;102082.13;5233799;28;20640;-65
2022/07/15 01:03:45;;;;;;;8.07;3.10;;;;;;;12.09;100.00;102085.78;5237181;28;20029;-66
2022/07/15 01:06:16;;;;;;;7.37;2.77;;;;;;;12.06;100.00;102081.50;5235868;28;20474;-65
2022/07/15 01:08:48;;;;;;;9.02;3.33;;;;;;;12.03;100.00;102073.66;5236706;28;20053;-66
2022/07/15 01:11:20;;;;;;;6.68;2.80;;;;;;;12.05;100.00;102069.06;5243977;28;20464;-64
2022/07/15 01:13:52;;;;;;;12.40;3.35;;;;;;;11.97;100.00;102071.38;5247600;28;20044;-64
2022/07/15 01:16:23;;;;;;;9.35;3.20;;;;;;;11.91;100.00;102071.75;5232801;28;20033;-65
2022/07/15 01:18:54;;;;;;;7.35;3.50;;;;;;;12.02;100.00;102071.91;5234427;28;20427;-64
2022/07/15 01:21:26;;;;;;;8.52;3.25;;;;;;;11.85;100.00;102072.97;5235005;28;20036;-65
2022/07/15 01:23:57;;;;;;;9.68;3.33;;;;;;;11.85;100.00;102070.28;5242338;28;20780;-65
2022/07/15 01:26:28;;;;;;;10.18;3.47;;;;;;;11.82;100.00;102078.47;5243990;28;20096;-64
2022/07/15 01:28:59;;;;;;;11.52;3.35;;;;;;;11.83;100.00;102084.69;5249090;28;20028;-65
2022/07/15 01:31:31;;;;;;;8.80;3.50;;;;;;;11.74;100.00;102089.66;5246380;28;20109;-64
2022/07/15 01:34:02;;;;;;;10.00;3.53;;;;;;;11.79;100.00;102092.03;5242110;28;20037;-65
2022/07/15 01:36:34;;;;;;;10.02;3.78;;;;;;;11.75;100.00;102095.84;5245856;28;20028;-65
2022/07/15 01:39:05;;;;;;;10.75;3.85;;;;;;;11.72;100.00;102093.38;5244743;28;20478;-65
2022/07/15 01:41:36;;;;;;;11.40;3.60;;;;;;;11.65;100.00;102087.53;5248487;28;20397;-65
2022/07/15 01:44:08;;;;;;;11.85;4.47;;;;;;;11.66;100.00;102099.09;5239661;28;20078;-65
2022/07/15 01:46:39;;;;;;;10.82;3.35;;;;;;;11.63;100.00;102094.78;5244586;28;20147;-65
2022/07/15 01:49:25;;;;;;;11.60;3.63;;;;;;;11.70;100.00;102100.66;5249303;28;20032;-65
2022/07/15 01:51:58;;;;;;;10.50;3.28;;;;;;;11.60;100.00;102097.66;5247364;28;20581;-65
2022/07/15 01:54:31;;;;;;;12.38;4.50;;;;;;;11.55;100.00;102097.09;5247972;28;20041;-64
2022/07/15 01:57:02;;;;;;;12.02;3.90;;;;;;;11.55;100.00;102097.94;5249568;28;20548;-64
2022/07/15 01:59:34;;;;;;;11.63;3.97;;;;;;;11.54;100.00;102096.22;5241566;28;20020;-64
2022/07/15 02:02:05;;;;;;;11.02;3.95;;;;;;;11.60;100.00;102103.00;5243053;28;20044;-65
2022/07/15 02:04:36;;;;;;;9.65;3.88;;;;;;;11.53;100.00;102105.19;5237947;28;20140;-65
2022/07/15 02:07:08;;;;;;;11.98;3.92;;;;;;;11.47;100.00;102104.72;5245939;28;20025;-64
2022/07/15 02:09:39;;;;;;;11.45;3.80;;;;;;;11.44;100.00;102099.53;5238718;28;20087;-65
2022/07/15 02:12:10;;;;;;;8.82;4.10;;;;;;;11.42;100.00;102091.59;5257516;28;20064;-65
2022/07/15 02:14:41;;;;;;;11.73;4.30;;;;;;;11.38;100.00;102093.59;5246022;28;20499;-64
2022/07/15 02:17:13;;;;;;;11.18;4.05;;;;;;;11.40;100.00;102104.22;5242260;28;20122;-64
2022/07/15 02:19:44;;;;;;;11.52;4.25;;;;;;;11.48;100.00;102099.25;5243603;28;20135;-64
2022/07/15 02:22:15;;;;;;;10.60;3.80;;;;;;;11.34;100.00;102085.88;5245624;28;20021;-64
2022/07/15 02:24:47;;;;;;;9.80;3.97;;;;;;;11.46;100.00;102089.63;5240265;28;20037;-64
2022/07/15 02:27:18;;;;;;;8.43;3.90;;;;;;;11.42;100.00;102091.59;5250958;28;20024;-64
2022/07/15 02:29:50;;;;;;;11.07;3.78;;;;;;;11.28;100.00;102087.09;5244857;28;20546;-64
2022/07/15 02:32:21;;;;;;;9.18;4.10;;;;;;;11.41;100.00;102086.34;5249546;28;20032;-65
2022/07/15 02:34:52;;;;;;;10.65;3.92;;;;;;;11.24;100.00;102090.03;5247265;28;20024;-65
2022/07/15 02:37:24;;;;;;;9.90;3.72;;;;;;;11.23;100.00;102082.97;5240326;28;20033;-64
2022/07/15 02:39:55;;;;;;;10.18;3.70;;;;;;;11.20;100.00;102086.69;5242989;28;20075;-64
2022/07/15 02:42:26;;;;;;;7.88;4.05;;;;;;;11.23;100.00;102089.16;5240590;28;20033;-64
2022/07/15 02:44:57;;;;;;;10.50;4.60;;;;;;;11.22;100.00;102095.47;5242214;28;20025;-64
2022/07/15 02:47:29;;;;;;;6.82;3.63;;;;;;;11.23;100.00;102091.00;5240325;28;20382;-64
2022/07/15 02:50:00;;;;;;;9.90;3.38;;;;;;;11.14;100.00;102093.25;5233303;28;20132;-65
2022/07/15 02:52:31;;;;;;;9.93;3.78;;;;;;;11.12;100.00;102099.63;5230597;28;20029;-65
2022/07/15 02:55:04;;;;;;;10.63;3.83;;;;;;;11.07;100.00;102099.91;5233277;28;20041;-65
2022/07/15 02:57:35;;;;;;;10.55;3.63;;;;;;;11.04;100.00;102097.41;5234345;28;20372;-65
2022/07/15 03:00:11;;;;;;;7.47;3.38;;;;;;;11.10;100.00;102101.53;5233155;28;20068;-65
2022/07/15 03:02:42;;;;;;;7.63;3.50;;;;;;;11.03;100.00;102110.88;5236086;28;20037;-65
2022/07/15 03:05:14;;;;;;;10.27;4.03;;;;;;;11.10;100.00;102114.88;5235383;28;20565;-66
2022/07/15 03:07:46;;;;;;;11.65;3.72;;;;;;;10.96;100.00;102121.03;5237680;28;20041;-64
2022/07/15 03:10:17;;;;;;;10.30;4.15;;;;;;;10.95;100.00;102130.88;5233172;28;21772;-65
2022/07/15 03:12:48;;;;;;;14.20;4.85;;;;;;;10.92;100.00;102127.50;5243480;28;20071;-64
2022/07/15 03:15:20;;;;;;;11.27;4.88;;;;;;;10.88;100.00;102120.63;5237775;28;20503;-64
2022/07/15 03:17:51;;;;;;;8.70;4.22;;;;;;;10.94;100.00;102130.94;5236431;28;20668;-65
2022/07/15 03:20:23;;;;;;;9.63;4.18;;;;;;;10.93;100.00;102126.53;5236053;28;20037;-65
2022/07/15 03:22:54;;;;;;;11.07;4.45;;;;;;;10.86;100.00;102130.53;5240623;28;20491;-65
2022/07/15 03:25:25;;;;;;;11.95;4.43;;;;;;;10.85;100.00;102136.81;5230753;28;20365;-65
2022/07/15 03:27:56;;;;;;;8.77;4.05;;;;;;;10.87;100.00;102137.56;5236624;28;20791;-64
2022/07/15 03:30:29;;;;;;;11.57;4.35;;;;;;;10.87;100.00;102137.56;5231700;28;20032;-65
2022/07/15 03:33:00;;;;;;;9.00;4.03;;;;;;;10.85;100.00;102142.16;5232230;28;20028;-65
2022/07/15 03:35:31;;;;;;;10.10;4.68;;;;;;;10.81;100.00;102145.94;5244521;28;20483;-65
2022/07/15 03:38:03;;;;;;;10.88;4.40;;;;;;;10.81;100.00;102143.28;5232515;28;20029;-64
2022/07/15 03:40:34;;;;;;;13.95;4.97;;;;;;;10.83;100.00;102152.06;5236247;28;20075;-64
2022/07/15 03:43:05;;;;;;;10.32;4.72;;;;;;;10.80;100.00;102142.41;5243006;28;20033;-65
2022/07/15 03:45:36;;;;;;;12.52;4.60;;;;;;;10.91;100.00;102147.13;5241687;28;20028;-66
2022/07/15 03:48:08;;;;;;;11.93;4.32;;;;;;;10.81;100.00;102149.47;5251785;28;20148;-64
2022/07/15 03:50:39;;;;;;;12.45;4.28;;;;;;;10.89;100.00;102149.91;5237764;28;20479;-64
2022/07/15 03:53:10;;;;;;;9.93;4.50;;;;;;;10.89;100.00;102149.91;5230759;28;20102;-65
2022/07/15 03:55:42;;;;;;;9.32;4.55;;;;;;;10.92;100.00;102149.72;5237410;28;20021;-65
2022/07/15 03:58:13;;;;;;;14.63;4.63;;;;;;;10.95;100.00;102159.38;5243578;28;20060;-65
2022/07/15 04:00:44;;;;;;;12.75;4.90;;;;;;;10.98;100.00;102157.38;5239126;28;20076;-65
2022/07/15 04:03:16;;;;;;;13.52;4.95;;;;;;;11.05;100.00;102157.03;5233383;28;20109;-65
2022/07/15 04:05:47;;;;;;;13.70;4.57;;;;;;;11.09;100.00;102163.94;5231577;28;20086;-65
2022/07/15 04:08:18;;;;;;;9.07;4.05;;;;;;;11.15;100.00;102169.75;5233110;28;20350;-65
2022/07/15 04:10:50;;;;;;;11.45;4.53;;;;;;;11.21;100.00;102163.22;5232263;28;20035;-65
2022/07/15 04:13:21;;;;;;;13.13;4.80;;;;;;;11.26;100.00;102160.28;5239018;28;20025;-65
2022/07/15 04:15:52;;;;;;;13.40;5.82;;;;;;;11.30;100.00;102165.34;5236787;28;20028;-64
2022/07/15 04:18:23;;;;;;;16.55;5.53;;;;;;;11.37;100.00;102165.84;5235907;28;20075;-65
2022/07/15 04:20:55;;;;;;;12.50;5.25;;;;;;;11.44;100.00;102166.34;5230748;28;20025;-65
2022/07/15 04:23:26;;;;;;;13.70;5.28;;;;;;;11.51;100.00;102159.69;5239432;28;20049;-64
2022/07/15 04:25:57;;;;;;;12.43;5.15;;;;;;;11.57;100.00;102160.19;5231521;28;20074;-65
2022/07/15 04:28:29;;;;;;;11.07;5.50;;;;;;;11.64;100.00;102162.47;5235969;28;20017;-65
2022/07/15 04:31:00;;;;;;;11.88;4.80;;;;;;;11.72;100.00;102161.09;5235361;28;20471;-65
2022/07/15 04:33:31;;;;;;;12.68;5.55;;;;;;;11.83;100.00;102165.78;5235811;28;20460;-64
2022/07/15 04:36:03;;;;;;;9.70;4.82;;;;;;;11.90;100.00;102164.47;5235283;28;20064;-65
2022/07/15 04:38:34;;;;;;;11.32;5.13;;;;;;;11.98;100.00;102168.50;5232491;28;20474;-64
2022/07/15 04:41:06;;;;;;;14.00;5.45;;;;;;;12.02;100.00;102168.22;5238050;28;20048;-65
2022/07/15 04:43:37;;;;;;;9.13;4.75;;;;;;;12.07;100.00;102167.94;5237586;28;20048;-65
2022/07/15 04:46:08;;;;;;;16.08;5.22;;;;;;;12.16;100.00;102175.41;5239154;28;20029;-65
2022/07/15 04:51:30;;;;;;;11.82;4.78;;;;;;;12.27;100.00;102186.31;5239013;28;20041;-65
2022/07/15 04:54:01;;;;;;;10.95;5.22;;;;;;;12.26;100.00;102171.19;5235008;28;20460;-64
2022/07/15 04:56:32;;;;;;;13.43;5.40;;;;;;;12.30;100.00;102183.41;5236406;28;20087;-64
2022/07/15 04:59:04;;;;;;;14.88;5.40;;;;;;;12.27;100.00;102172.94;5237280;28;20172;-65
2022/07/15 05:01:35;;;;;;;16.90;5.43;;;;;;;12.27;100.00;102170.25;5242164;28;20041;-65
2022/07/15 05:04:06;;;;;;;12.73;5.10;;;;;;;12.23;100.00;102179.41;5241961;28;20052;-64
2022/07/15 05:06:37;;;;;;;15.52;5.57;;;;;;;12.22;100.00;102176.84;5243704;28;20491;-64
2022/07/15 05:09:09;;;;;;;11.18;4.82;;;;;;;12.22;100.00;102176.84;5243520;28;20475;-64
2022/07/15 05:11:40;;;;;;;14.07;5.00;;;;;;;12.17;100.00;102179.78;5247727;28;20787;-64
2022/07/15 05:14:12;;;;;;;7.90;4.90;;;;;;;12.17;100.00;102179.78;5236928;28;20128;-65
2022/07/15 05:16:43;;;;;;;12.50;5.18;;;;;;;12.16;100.00;102178.09;5239944;28;20037;-65
2022/07/15 05:19:14;;;;;;;10.10;5.07;;;;;;;12.14;100.00;102185.34;5243213;28;20064;-65
2022/07/15 05:21:46;;;;;;;12.18;5.00;;;;;;;12.13;100.00;102183.59;5243823;28;20029;-65
2022/07/15 05:24:18;;;;;;;13.20;5.32;;;;;;;12.13;100.00;102181.78;5243761;28;20033;-64
2022/07/15 05:26:50;;;;;;;12.27;6.05;;;;;;;12.18;100.00;102181.53;5243133;28;20032;-64
2022/07/15 05:29:24;;;;;;;10.77;5.95;;;;;;;12.21;100.00;102183.13;5244928;28;20521;-65
2022/07/15 05:31:55;;;;;;;10.23;4.78;;;;;;;12.24;100.00;102183.81;5251139;28;20033;-65
2022/07/15 05:34:26;;;;;;;11.90;5.20;;;;;;;12.28;100.00;102187.16;5247428;28;20025;-66
2022/07/15 05:36:58;;;;;;;13.88;4.90;;;;;;;12.28;100.00;102184.47;5249468;28;20033;-64
2022/07/15 05:39:29;;;;;;;13.57;4.95;;;;;;;12.34;100.00;102171.56;5246147;28;20422;-65
2022/07/15 05:42:00;;;;;;;10.73;4.70;;;;;;;12.39;100.00;102173.09;5248837;28;20478;-65
2022/07/15 05:44:32;;;;;;;15.65;4.90;;;;;;;12.46;100.00;102182.47;5251325;28;20420;-64
2022/07/15 05:47:03;;;;;;;9.40;4.50;;;;;;;12.48;100.00;102175.19;5245529;28;20036;-65
2022/07/15 05:49:34;;;;;;;12.27;4.47;;;;;;;12.52;100.00;102177.59;5244856;28;20460;-65
2022/07/15 05:52:06;;;;;;;9.35;4.15;;;;;;;12.55;100.00;102174.69;5249587;28;20468;-65
2022/07/15 05:54:37;;;;;;;10.27;3.60;;;;;;;12.63;100.00;102176.88;5243402;28;20037;-64
2022/07/15 05:57:08;;;;;;;12.05;4.18;;;;;;;12.68;100.00;102176.63;5248550;28;20061;-65
2022/07/15 05:59:40;;;;;;;12.05;4.20;;;;;;;12.77;100.00;102175.16;5235558;28;20037;-65
2022/07/15 06:02:13;;;;;;;12.75;3.90;;;;;;;12.78;100.00;102168.84;5240147;28;20047;-65
2022/07/15 06:04:45;;;;;;;8.80;3.83;;;;;;;12.88;100.00;102180.66;5242362;28;20029;-65
2022/07/15 06:07:16;;;;;;;11.00;4.40;;;;;;;12.92;100.00;102180.41;5254553;28;20029;-65
2022/07/15 06:09:50;;;;;;;11.18;4.07;;;;;;;12.98;100.00;102173.75;5236988;28;20022;-65
2022/07/15 06:12:21;;;;;;;13.35;4.00;;;;;;;13.04;100.00;102176.03;5234584;28;20114;-66
2022/07/15 06:14:53;;;;;;;17.33;4.30;;;;;;;13.07;100.00;102169.63;5246620;28;20108;-65
2022/07/15 06:17:24;;;;;;;13.52;3.50;;;;;;;13.15;100.00;102172.63;5252164;28;20115;-64
2022/07/15 06:19:55;;;;;;;15.50;3.20;;;;;;;13.23;100.00;102183.72;5241852;28;20475;-64
2022/07/15 06:22:27;;;;;;;13.52;3.15;;;;;;;13.34;100.00;102180.34;5248617;28;20041;-65
2022/07/15 06:24:59;;;;;;;8.75;3.10;;;;;;;13.45;100.00;102182.31;5248567;28;20037;-66
2022/07/15 06:27:30;;;;;;;10.02;3.05;;;;;;;13.54;100.00;102187.06;5250582;28;20024;-65
2022/07/15 06:30:02;;;;;;;9.25;3.25;;;;;;;13.62;100.00;102181.19;5250392;28;20437;-64
2022/07/15 06:32:35;;;;;;;12.52;3.33;;;;;;;13.78;99.32;102176.47;5249094;28;20043;-65
2022/07/15 06:35:07;;;;;;;10.63;3.17;;;;;;;13.76;99.04;102181.09;5250972;28;20029;-65
2022/07/15 06:37:38;;;;;;;7.18;2.10;;;;;;;13.91;98.04;102168.44;5249608;28;21166;-65
2022/07/15 06:40:10;;;;;;;9.32;2.30;;;;;;;14.05;95.86;102183.56;5244095;28;20032;-65
2022/07/15 06:42:41;;;;;;;7.72;2.10;;;;;;;14.11;95.07;102177.78;5248690;28;20044;-64
2022/07/15 06:45:12;;;;;;;9.90;2.03;;;;;;;14.23;94.68;102176.94;5244333;28;20029;-64
2022/07/15 06:47:44;;;;;;;8.40;2.17;;;;;;;14.24;93.37;102178.63;5252373;28;20529;-65
2022/07/15 06:50:15;;;;;;;6.75;1.77;;;;;;;14.37;92.20;102181.31;5247718;28;20033;-65
2022/07/15 06:52:46;;;;;;;8.50;2.33;;;;;;;14.58;93.61;102172.72;5251286;28;20056;-65
2022/07/15 06:55:18;;;;;;;9.35;1.70;;;;;;;14.73;92.80;102179.66;5249349;28;20033;-65
2022/07/15 06:57:49;;;;;;;7.22;1.52;;;;;;;14.80;91.30;102180.91;5248278;28;20481;-64
2022/07/15 07:00:20;;;;;;;8.13;1.65;;;;;;;14.95;87.35;102176.25;5250801;28;20053;-65
2022/07/15 07:02:51;;;;;;;6.88;1.73;;;;;;;15.12;83.71;102175.00;5249969;28;20061;-65
2022/07/15 07:05:23;;;;;;;5.85;1.30;;;;;;;15.04;84.85;102166.66;5250268;28;20028;-65
2022/07/15 07:07:54;;;;;;;8.25;1.40;;;;;;;15.25;82.03;102170.44;5252920;28;20024;-64
2022/07/15 07:10:26;;;;;;;6.30;1.13;;;;;;;15.50;81.35;102173.94;5249104;28;20501;-65
2022/07/15 07:13:00;;;;;;;3.95;0.90;;;;;;;15.60;80.07;102187.56;5246571;28;20532;-66
2022/07/15 07:15:31;;;;;;;4.72;1.00;;;;;;;15.67;75.58;102181.59;5241415;28;20079;-64
2022/07/15 07:18:03;;;;;;;5.03;0.82;;;;;;;15.68;76.19;102182.44;5243119;28;20032;-65
2022/07/15 07:20:36;;;;;;;4.75;1.08;;;;;;;15.90;75.51;102187.06;5248473;28;20030;-65
2022/07/15 07:23:07;;;;;;;5.88;1.10;;;;;;;15.90;75.65;102187.06;5245152;28;20040;-65
2022/07/15 07:25:39;;;;;;;6.53;1.02;;;;;;;16.03;75.54;102195.00;5249936;28;20447;-65
2022/07/15 07:28:10;;;;;;;7.03;1.33;;;;;;;16.19;74.67;102200.06;5253095;28;20470;-64
2022/07/15 07:30:41;;;;;;;5.82;0.88;;;;;;;16.34;74.03;102195.28;5244866;28;20497;-65
2022/07/15 07:33:13;;;;;;;7.38;1.17;;;;;;;16.26;72.44;102198.59;5252705;28;20486;-65
2022/07/15 07:35:44;;;;;;;3.30;0.68;;;;;;;16.25;70.74;102195.03;5249469;28;20398;-65
2022/07/15 07:38:16;;;;;;;6.60;0.77;;;;;;;16.32;71.00;102195.44;5248431;28;20064;-66
2022/07/15 07:40:48;;;;;;;4.97;0.90;;;;;;;16.45;70.64;102198.88;5247625;28;20041;-65
2022/07/15 07:43:19;;;;;;;4.07;0.73;;;;;;;16.47;70.19;102198.72;5249258;28;20078;-65
2022/07/15 07:45:50;;;;;;;5.22;0.80;;;;;;;16.66;70.52;102211.56;5248077;28;20036;-65
2022/07/15 07:48:22;;;;;;;4.72;1.00;;;;;;;16.65;69.53;102205.34;5253973;28;20119;-65
2022/07/15 07:50:53;;;;;;;6.55;1.48;;;;;;;16.80;66.93;102207.78;5247804;28;20036;-65
2022/07/15 07:53:24;;;;;;;4.60;0.90;;;;;;;16.72;66.69;102208.41;5250371;28;20519;-65
2022/07/15 07:55:56;;;;;;;5.28;0.73;;;;;;;16.61;65.96;102203.03;5249058;28;20032;-65
2022/07/15 07:58:27;;;;;;;6.50;1.00;;;;;;;16.76;66.95;102195.50;5249066;28;20047;-66
2022/07/15 08:00:59;;;;;;;5.45;0.75;;;;;;;16.75;67.12;102200.06;5247952;28;20071;-65
2022/07/15 08:03:30;;;;;;;4.60;1.05;;;;;;;16.78;65.82;102199.81;5249569;28;20037;-64
2022/07/15 08:06:02;;;;;;;3.97;0.80;;;;;;;16.84;64.45;102204.72;5250298;28;20027;-66
2022/07/15 08:08:37;;;;;;;3.08;0.60;;;;;;;16.88;65.13;102199.09;5251026;28;20382;-65
2022/07/15 08:11:08;;;;;;;3.90;0.80;;;;;;;16.81;63.49;102204.09;5252881;28;20114;-65
2022/07/15 08:13:39;;;;;;;6.03;0.85;;;;;;;16.93;61.69;102200.44;5247991;28;20111;-65
2022/07/15 08:16:11;;;;;;;4.30;0.65;;;;;;;17.10;62.33;102203.56;5251323;28;20033;-65
2022/07/15 08:18:43;;;;;;;5.82;1.23;;;;;;;17.07;64.29;102204.69;5253875;28;20059;-66
2022/07/15 08:21:14;;;;;;;5.38;0.80;;;;;;;17.03;65.38;102212.19;5251924;28;20021;-65
2022/07/15 08:23:46;;;;;;;6.53;1.08;;;;;;;17.21;65.61;102204.38;5248425;28;20120;-66
2022/07/15 08:26:23;;;;;;;4.88;1.00;;;;;;;17.28;62.25;102207.44;5252552;28;20055;-65
2022/07/15 08:28:55;;;;;;;6.57;1.10;;;;;;;17.37;62.29;102206.69;5253858;28;20473;-65
2022/07/15 08:31:26;;;;;;;4.28;1.08;;;;;;;17.40;60.22;102206.41;5253412;28;20032;-66
2022/07/15 08:33:57;;;;;;;4.70;0.77;;;;;;;17.31;60.26;102220.66;5253017;28;20384;-65
2022/07/15 08:36:30;;;;;;;6.50;1.00;;;;;;;17.29;60.09;102216.38;5250853;28;20048;-65
2022/07/15 08:39:01;;;;;;;2.83;0.68;;;;;;;17.39;59.97;102206.53;5257254;28;20479;-64
2022/07/15 08:41:39;;;;;;;5.13;0.70;;;;;;;17.48;62.77;102213.00;5250258;28;20059;-65
2022/07/15 08:44:10;;;;;;;4.82;0.77;;;;;;;17.50;61.30;102198.41;5247825;28;20036;-65
2022/07/15 08:46:45;;;;;;;5.93;0.90;;;;;;;17.55;60.39;102206.97;5245782;28;20017;-65
2022/07/15 08:49:19;;;;;;;4.22;0.80;;;;;;;17.74;59.45;102200.88;5247823;28;20033;-65
2022/07/15 08:51:51;;;;;;;4.60;0.73;;;;;;;17.69;58.60;102203.09;5246069;28;20082;-65
2022/07/15 08:54:23;;;;;;;7.25;0.80;;;;;;;17.69;59.22;102202.25;5253646;28;20492;-65
2022/07/15 08:56:55;;;;;;;4.32;0.80;;;;;;;17.73;59.76;102195.59;5251879;28;20031;-65
2022/07/15 08:59:27;;;;;;;4.05;0.70;;;;;;;18.10;57.60;102203.25;5250221;28;20550;-65
2022/07/15 09:01:59;;;;;;;5.00;0.90;;;;;;;17.91;57.05;102203.97;5254016;28;20041;-65
2022/07/15 09:04:30;;;;;;;4.22;0.70;;;;;;;17.81;56.86;102199.34;5253130;28;20679;-65
2022/07/15 09:07:04;;;;;;;2.22;0.55;;;;;;;18.06;56.84;102199.94;5250055;28;20082;-65
2022/07/15 09:09:37;;;;;;;5.03;0.80;;;;;;;18.13;58.71;102189.47;5244052;28;20077;-65
2022/07/15 09:12:11;;;;;;;3.03;0.60;;;;;;;18.15;58.83;102188.34;5253933;28;20120;-65
2022/07/15 09:14:44;;;;;;;5.65;0.70;;;;;;;18.50;58.53;102187.06;5253942;28;20031;-65
2022/07/15 09:17:15;;;;;;;4.13;0.90;;;;;;;18.52;58.20;102186.94;5250829;28;20431;-65
2022/07/15 09:20:08;;;;;;;4.63;0.80;;;;;;;18.42;58.14;102184.19;5251080;28;20107;-65
2022/07/15 09:22:50;;;;;;;6.55;1.05;;;;;;;18.67;58.07;102190.13;5254432;28;20376;-65
2022/07/15 09:25:22;;;;;;;3.50;0.80;;;;;;;18.64;56.76;102185.88;5250678;28;20056;-65
2022/07/15 09:27:54;;;;;;;3.92;0.80;;;;;;;18.78;55.00;102182.75;5252322;28;20085;-65
2022/07/15 09:36:28;;;;;;;2.75;0.57;;;;;;;18.72;54.45;102193.28;5231355;28;20094;-65
2022/07/15 09:39:03;;;;;;;4.80;0.65;;;;;;;18.58;54.88;102181.84;5239938;28;20084;-65
2022/07/15 09:41:38;;;;;;;5.25;0.70;;;;;;;18.73;54.58;102187.72;5245128;28;20087;-65
2022/07/15 09:44:13;;;;;;;4.00;0.80;;;;;;;18.75;54.47;102188.44;5247811;28;20096;-65
2022/07/15 09:46:50;;;;;;;2.83;0.75;;;;;;;18.89;54.92;102181.81;5247370;28;20391;-66
2022/07/15 09:49:21;;;;;;;2.45;0.50;;;;;;;18.81;55.58;102184.34;5251940;28;20024;-65
2022/07/15 09:52:02;;;;;;;4.63;0.70;;;;;;;19.11;56.52;102180.72;5248415;28;20084;-65
2022/07/15 09:54:35;;;;;;;5.75;0.98;;;;;;;19.05;55.86;102175.03;5251656;28;20620;-65
2022/07/15 09:57:16;;;;;;;4.38;0.95;;;;;;;19.32;56.53;102172.47;5245815;28;20067;-65
2022/07/15 09:59:50;;;;;;;2.92;0.65;;;;;;;19.23;54.52;102169.75;5243960;28;20032;-65
2022/07/15 10:02:22;;;;;;;2.15;0.50;;;;;;;19.61;54.37;102181.56;5250289;28;20056;-66
2022/07/15 10:04:55;;;;;;;3.80;0.77;;;;;;;19.64;55.09;102168.59;5250592;28;20040;-65
2022/07/15 10:07:27;;;;;;;7.30;1.13;;;;;;;19.77;53.83;102179.16;5242849;28;20041;-65
2022/07/15 10:10:01;;;;;;;3.80;0.85;;;;;;;19.75;53.09;102173.03;5247168;28;20472;-65
2022/07/15 10:12:45;;;;;;;5.60;1.00;;;;;;;19.98;52.96;102168.13;5248460;28;20223;-65
2022/07/15 10:15:29;;;;;;;5.72;0.80;;;;;;;20.05;50.65;102171.97;5240883;28;20025;-65
2022/07/15 10:18:44;;;;;;;3.20;0.57;;;;;;;20.16;52.61;102162.81;5252919;28;20039;-65
2022/07/15 10:21:38;;;;;;;4.00;0.73;;;;;;;20.21;51.18;102160.47;5243822;28;20040;-65
2022/07/15 10:24:24;;;;;;;3.10;0.65;;;;;;;20.33;51.14;102155.75;5249698;28;20016;-66
2022/07/15 10:27:14;;;;;;;4.82;0.70;;;;;;;20.59;50.08;102153.19;5243845;28;20035;-65
2022/07/15 10:29:46;;;;;;;3.20;0.75;;;;;;;19.96;48.62;102157.47;5245294;28;20029;-66
2022/07/15 10:32:18;;;;;;;2.70;0.75;;;;;;;20.24;50.03;102159.34;5248737;28;21395;-65
2022/07/15 10:34:50;;;;;;;3.08;0.60;;;;;;;20.18;50.71;102153.50;5246209;28;20029;-65
2022/07/15 10:37:21;;;;;;;3.35;0.80;;;;;;;20.24;51.08;102153.94;5237626;28;20167;-66
2022/07/15 10:40:06;;;;;;;3.53;0.68;;;;;;;20.49;50.90;102146.97;5249273;28;20033;-64
2022/07/15 10:42:57;;;;;;;4.65;0.70;;;;;;;20.59;50.19;102146.91;5245999;28;20491;-65
2022/07/15 10:45:30;;;;;;;3.60;0.70;;;;;;;20.81;46.97;102141.09;5243345;28;20124;-65
2022/07/15 10:48:33;;;;;;;2.80;0.40;;;;;;;20.79;47.91;102142.22;5241470;28;20114;-65
2022/07/15 10:51:04;;;;;;;3.15;0.70;;;;;;;20.83;46.46;102139.09;5214088;28;20039;-65
2022/07/15 10:53:44;;;;;;;4.25;0.52;;;;;;;21.02;46.52;102134.53;5247253;28;20507;-65
2022/07/15 10:56:34;;;;;;;2.95;0.68;;;;;;;20.99;45.94;102132.13;5249101;28;20120;-66
2022/07/15 10:59:13;;;;;;;4.13;0.98;;;;;;;21.14;48.37;102123.25;5247578;28;20044;-66
2022/07/15 11:02:00;;;;;;;3.15;0.85;;;;;;;21.23;48.22;102123.34;5244023;28;20511;-67
2022/07/15 11:04:33;;;;;;;3.30;0.50;;;;;;;21.19;48.63;102128.25;5239462;28;20180;-65
2022/07/15 11:07:09;;;;;;;3.80;0.70;;;;;;;20.99;47.47;102124.81;5244777;28;20040;-66
2022/07/15 11:09:46;;;;;;;4.35;0.68;;;;;;;21.29;48.58;102120.84;5246417;28;20029;-66
2022/07/15 11:12:28;;;;;;;4.50;0.50;;;;;;;21.18;45.80;102122.97;5244797;28;20029;-66
2022/07/15 11:15:01;;;;;;;2.80;0.55;;;;;;;21.10;47.21;102116.44;5242097;28;20523;-66
2022/07/15 11:17:32;;;;;;;3.40;0.70;;;;;;;21.09;46.90;102119.31;5241721;28;20624;-66
2022/07/15 11:20:11;;;;;;;3.75;0.82;;;;;;;21.11;46.85;102125.44;5250337;28;20036;-66
2022/07/15 11:22:44;;;;;;;5.03;0.88;;;;;;;21.37;46.72;102119.22;5252243;28;20033;-65
2022/07/15 11:25:29;;;;;;;2.92;0.50;;;;;;;21.49;46.14;102121.53;5253943;28;20122;-66
2022/07/15 11:28:13;;;;;;;3.17;0.60;;;;;;;21.63;46.41;102124.69;5242600;28;20029;-66
2022/07/15 11:30:53;;;;;;;3.40;0.90;;;;;;;21.40;45.49;102117.06;5237015;28;20044;-66
2022/07/15 11:33:29;;;;;;;4.07;0.95;;;;;;;21.43;45.66;102113.16;5241888;28;20089;-66
2022/07/15 11:36:02;;;;;;;4.35;0.80;;;;;;;21.48;45.35;102116.28;5242295;28;20037;-65
2022/07/15 11:38:38;;;;;;;4.80;0.55;;;;;;;21.49;46.15;102113.41;5244312;28;20025;-65
2022/07/15 11:46:54;;;;;;;4.18;0.65;;;;;;;21.64;46.55;102110.97;5246502;28;20029;-66
2022/07/15 11:49:33;;;;;;;3.90;0.68;;;;;;;21.58;45.92;102100.75;5251204;28;20032;-66
2022/07/15 11:52:06;;;;;;;2.60;0.60;;;;;;;21.68;46.70;102098.75;5247103;28;20031;-64
2022/07/15 11:54:40;;;;;;;3.00;0.50;;;;;;;21.62;46.00;102098.56;5246146;28;20029;-65
2022/07/15 11:57:13;;;;;;;3.42;0.68;;;;;;;21.38;45.20;102100.03;5251540;28;20056;-64